Time;durP1;ratioP1;P1;durP2;ratioP2;P2;SDS_P1;SDS_P2;PMS_P1;PMS_P2;Temp;Humidity;BMP_temperature;BMP_pressure;BME280_temperature;BME280_humidity;BME280_pressure;Samples;Min_cycle;Max_cycle;Signal;HPM_P1;HPM_P2
2023/06/23 00:00:11;;;;;;;;;;;;;;;15.50;100.00;101786.38;5012919;28;20368;-73
2023/06/23 00:02:37;;;;;;;;;;;;;;;15.51;100.00;101794.34;5012877;28;19944;-74
2023/06/23 00:05:04;;;;;;;;;;;;;;;15.49;100.00;101795.47;5015604;28;19921;-74
2023/06/23 00:07:30;;;;;;;;;;;;;;;15.42;100.00;101797.84;5016928;28;19921;-73
2023/06/23 00:09:55;;;;;;;;;;;;;;;15.38;100.00;101799.09;5015631;28;19983;-73
2023/06/23 00:12:20;;;;;;;;;;;;;;;15.34;100.00;101801.19;5011230;28;20288;-74
2023/06/23 00:14:46;;;;;;;;;;;;;;;15.34;100.00;101806.63;5013960;28;20736;-74
2023/06/23 00:17:11;;;;;;;;;;;;;;;15.30;100.00;101808.69;5015864;28;20353;-73
2023/06/23 00:19:36;;;;;;;;;;;;;;;15.29;100.00;101804.28;5011629;28;20619;-73
2023/06/23 00:22:03;;;;;;;;;;;;;;;15.28;100.00;101804.41;5016484;28;20394;-74
2023/06/23 00:24:30;;;;;;;;;;;;;;;15.23;100.00;101810.19;5010446;28;20043;-74
2023/06/23 00:26:55;;;;;;;;;;;;;;;15.19;100.00;101810.56;5016555;28;19932;-73
2023/06/23 00:29:21;;;;;;;;;;;;;;;15.10;100.00;101817.59;5011760;28;19953;-74
2023/06/23 00:31:46;;;;;;;;;;;;;;;15.08;100.00;101815.03;4998865;28;20003;-74
2023/06/23 00:34:11;;;;;;;;;;;;;;;15.08;100.00;101825.84;5005732;28;20214;-74
2023/06/23 00:36:36;;;;;;;;;;;;;;;15.06;100.00;101835.94;5011318;28;21302;-73
2023/06/23 00:39:02;;;;;;;;;;;;;;;15.07;100.00;101826.84;5014939;28;19921;-73
2023/06/23 00:41:27;;;;;;;;;;;;;;;15.09;100.00;101842.91;5014876;28;19960;-73
2023/06/23 00:43:52;;;;;;;;;;;;;;;15.12;100.00;101842.69;5013446;28;20010;-73
2023/06/23 00:46:19;;;;;;;;;;;;;;;15.06;100.00;101844.03;5015493;28;20062;-74
2023/06/23 00:48:44;;;;;;;;;;;;;;;15.07;100.00;101845.75;5015154;28;20436;-73
2023/06/23 00:51:10;;;;;;;;;;;;;;;15.04;100.00;101858.66;5016361;28;19921;-74
2023/06/23 00:53:35;;;;;;;;;;;;;;;15.03;100.00;101859.63;5016990;28;19921;-74
2023/06/23 00:56:00;;;;;;;;;;;;;;;15.00;100.00;101860.75;4998341;28;19928;-73
2023/06/23 00:58:26;;;;;;;;;;;;;;;15.00;100.00;101860.75;5008954;28;19987;-74
2023/06/23 01:00:51;;;;;;;;;;;;;;;14.98;100.00;101863.56;5010484;28;19991;-73
2023/06/23 01:03:16;;;;;;;;;;;;;;;14.95;100.00;101860.25;5014308;28;20187;-73
2023/06/23 01:05:41;;;;;;;;;;;;;;;14.96;100.00;101861.97;5012929;28;20279;-73
2023/06/23 01:08:26;;;;;;;;;;;;;;;14.91;100.00;101872.31;5022660;28;20169;-74
2023/06/23 01:10:56;;;;;;;;;;;;;;;14.87;100.00;101868.13;5012521;28;20363;-73
2023/06/23 01:13:21;;;;;;;;;;;;;;;14.82;100.00;101877.47;5002369;28;20283;-72
2023/06/23 01:15:59;;;;;;;;;;;;;;;14.80;100.00;101887.56;5013548;28;19917;-72
2023/06/23 01:18:28;;;;;;;;;;;;;;;14.68;100.00;101877.66;5013530;28;19921;-74
2023/06/23 01:20:53;;;;;;;;;;;;;;;14.82;100.00;101891.00;5008923;28;19928;-73
2023/06/23 01:23:39;;;;;;;;;;;;;;;14.82;100.00;101882.00;5008286;28;20020;-73
2023/06/23 01:26:10;;;;;;;;;;;;;;;14.85;100.00;101876.38;5013542;28;20384;-73
2023/06/23 01:28:39;;;;;;;;;;;;;;;14.85;100.00;101885.31;5010654;28;20408;-73
2023/06/23 01:31:04;;;;;;;;;;;;;;;14.87;100.00;101889.75;5008043;28;19928;-73
2023/06/23 01:33:37;;;;;;;;;;;;;;;14.90;100.00;101887.69;5009618;28;19921;-74
2023/06/23 01:36:06;;;;;;;;;;;;;;;14.93;100.00;101898.25;5008420;28;19925;-74
2023/06/23 01:38:32;;;;;;;;;;;;;;;14.94;100.00;101893.69;5014849;28;19943;-73
2023/06/23 01:40:58;;;;;;;;;;;;;;;14.96;100.00;101900.69;5011649;28;20364;-73
2023/06/23 01:43:29;;;;;;;;;;;;;;;14.96;100.00;101895.28;5006131;28;20522;-73
2023/06/23 01:46:08;;;;;;;;;;;;;;;14.96;100.00;101914.22;5010103;28;19936;-72
2023/06/23 01:48:34;;;;;;;;;;;;;;;14.94;100.00;101918.03;5011866;28;19921;-73
2023/06/23 01:51:02;;;;;;;;;;;;;;;14.94;100.00;101916.19;5012670;28;19964;-73
2023/06/23 01:53:27;;;;;;;;;;;;;;;14.99;100.00;101919.38;4990827;28;20516;-73
2023/06/23 01:55:52;;;;;;;;;;;;;;;14.97;100.00;101926.75;5026420;28;19921;-73
2023/06/23 01:58:18;;;;;;;;;;;;;;;14.94;100.00;101928.84;5011138;28;19956;-73
2023/06/23 02:00:43;;;;;;;;;;;;;;;14.93;100.00;101933.41;5010349;28;19932;-73
2023/06/23 02:03:08;;;;;;;;;;;;;;;14.92;100.00;101928.09;5009877;28;19967;-73
2023/06/23 02:05:33;;;;;;;;;;;;;;;14.89;100.00;101921.09;5010239;28;20391;-73
2023/06/23 02:07:58;;;;;;;;;;;;;;;14.89;100.00;101931.03;4991541;28;20388;-72
2023/06/23 02:10:27;;;;;;;;;;;;;;;14.88;100.00;101937.44;5011096;28;20447;-72
2023/06/23 02:12:52;;;;;;;;;;;;;;;14.89;100.00;101933.75;5009645;28;20334;-73
2023/06/23 02:15:17;;;;;;;;;;;;;;;14.88;100.00;101941.00;4989851;28;20006;-72
2023/06/23 02:17:43;;;;;;;;;;;;;;;14.89;100.00;101939.16;5011261;28;20397;-73
2023/06/23 02:20:16;;;;;;;;;;;;;;;14.91;100.00;101948.88;5011609;28;20394;-73
2023/06/23 02:22:45;;;;;;;;;;;;;;;14.85;100.00;101950.22;5012448;28;19921;-72
2023/06/23 02:25:10;;;;;;;;;;;;;;;14.81;100.00;101945.16;5009151;28;19931;-74
2023/06/23 02:27:36;;;;;;;;;;;;;;;14.79;100.00;101949.84;5005659;28;19921;-73
2023/06/23 02:30:01;;;;;;;;;;;;;;;14.72;100.00;101951.28;5010104;28;19928;-72
2023/06/23 02:32:26;;;;;;;;;;;;;;;14.74;100.00;101957.44;5007247;28;19921;-72
2023/06/23 02:34:51;;;;;;;;;;;;;;;14.72;100.00;101957.56;5025036;28;20266;-72
2023/06/23 02:37:23;;;;;;;;;;;;;;;14.64;100.00;101965.38;5001989;28;20398;-73
2023/06/23 02:39:50;;;;;;;;;;;;;;;14.57;100.00;101965.00;5011007;28;20012;-73
2023/06/23 02:42:15;;;;;;;;;;;;;;;14.63;100.00;101971.75;5012398;28;20362;-73
2023/06/23 02:44:49;;;;;;;;;;;;;;;14.55;100.00;101967.81;5012248;28;20031;-72
2023/06/23 02:47:15;;;;;;;;;;;;;;;14.55;100.00;101972.34;5008367;28;19932;-72
2023/06/23 02:49:40;;;;;;;;;;;;;;;14.54;100.00;101970.63;5012253;28;19921;-72
2023/06/23 02:52:05;;;;;;;;;;;;;;;14.53;100.00;101979.72;5004872;28;19979;-71
2023/06/23 02:54:31;;;;;;;;;;;;;;;14.50;100.00;101980.81;4994748;28;19953;-72
2023/06/23 02:56:57;;;;;;;;;;;;;;;14.45;100.00;101983.00;5012489;28;19971;-71
2023/06/23 02:59:22;;;;;;;;;;;;;;;14.43;100.00;101986.81;5010202;28;20011;-71
2023/06/23 03:01:48;;;;;;;;;;;;;;;14.47;100.00;101991.00;5010201;28;20422;-72
2023/06/23 03:04:14;;;;;;;;;;;;;;;14.40;100.00;101994.19;5001690;28;20387;-72
2023/06/23 03:06:39;;;;;;;;;;;;;;;14.43;100.00;102000.34;5007451;28;19944;-73
2023/06/23 03:09:06;;;;;;;;;;;;;;;14.39;100.00;102002.38;5017757;28;19925;-73
2023/06/23 03:11:31;;;;;;;;;;;;;;;14.37;100.00;101998.94;5008073;28;19920;-72
2023/06/23 03:13:57;;;;;;;;;;;;;;;14.38;100.00;102004.25;4993975;28;19932;-73
2023/06/23 03:16:25;;;;;;;;;;;;;;;14.34;100.00;102000.03;5013482;28;19932;-72
2023/06/23 03:18:53;;;;;;;;;;;;;;;14.34;100.00;102008.16;5011275;28;19921;-72
2023/06/23 03:21:19;;;;;;;;;;;;;;;14.37;100.00;102018.72;5012344;28;19971;-72
2023/06/23 03:23:49;;;;;;;;;;;;;;;14.36;100.00;102025.09;5011580;28;19961;-72
2023/06/23 03:26:14;;;;;;;;;;;;;;;14.32;100.00;102015.50;5012505;28;20558;-72
2023/06/23 03:28:40;;;;;;;;;;;;;;;14.30;100.00;102016.59;5009356;28;19955;-72
2023/06/23 03:31:07;;;;;;;;;;;;;;;14.31;100.00;102031.81;5012448;28;20024;-72
2023/06/23 03:33:36;;;;;;;;;;;;;;;14.27;100.00;102028.47;5004801;28;19921;-73
2023/06/23 03:36:06;;;;;;;;;;;;;;;14.27;100.00;102035.75;5004254;28;19928;-71
2023/06/23 03:38:31;;;;;;;;;;;;;;;14.25;100.00;102035.84;5010982;28;19968;-71
2023/06/23 03:40:58;;;;;;;;;;;;;;;14.19;100.00;102028.19;5029166;28;20012;-72
2023/06/23 03:43:34;;;;;;;;;;;;;;;14.17;100.00;102038.28;5008515;28;19929;-73
2023/06/23 03:46:03;;;;;;;;;;;;;;;14.18;100.00;102038.16;5008072;28;19921;-72
2023/06/23 03:48:28;;;;;;;;;;;;;;;14.19;100.00;102044.38;5011846;28;20206;-72
2023/06/23 03:50:54;;;;;;;;;;;;;;;14.19;100.00;102041.69;5015683;28;20002;-73
2023/06/23 03:53:19;;;;;;;;;;;;;;;14.19;100.00;102042.56;5017985;28;19994;-73
2023/06/23 03:55:44;;;;;;;;;;;;;;;14.19;100.00;102050.66;5018448;28;20012;-73
2023/06/23 03:58:10;;;;;;;;;;;;;;;14.17;100.00;102044.50;5010702;28;19928;-72
2023/06/23 04:00:35;;;;;;;;;;;;;;;14.15;100.00;102042.91;5011651;28;19921;-72
2023/06/23 04:03:01;;;;;;;;;;;;;;;14.16;100.00;102048.19;5021688;28;20439;-74
2023/06/23 04:05:28;;;;;;;;;;;;;;;14.18;100.00;102057.03;5009730;28;19918;-72
2023/06/23 04:07:53;;;;;;;;;;;;;;;14.15;100.00;102053.72;5014471;28;19921;-72
2023/06/23 04:10:19;;;;;;;;;;;;;;;14.13;100.00;102053.81;5016916;28;19921;-72
2023/06/23 04:12:44;;;;;;;;;;;;;;;14.13;100.00;102052.97;5008443;28;20440;-72
2023/06/23 04:15:09;;;;;;;;;;;;;;;14.16;100.00;102055.44;5016727;28;20027;-72
2023/06/23 04:17:36;;;;;;;;;;;;;;;14.17;100.00;102057.19;5014695;28;19983;-72
2023/06/23 04:20:03;;;;;;;;;;;;;;;14.18;100.00;102057.03;5012883;28;19956;-72
2023/06/23 04:22:28;;;;;;;;;;;;;;;14.23;100.00;102060.28;5014106;28;19964;-73
2023/06/23 04:24:54;;;;;;;;;;;;;;;14.26;100.00;102059.19;5012008;28;20652;-71
2023/06/23 04:27:20;;;;;;;;;;;;;;;14.29;100.00;102066.22;5000009;28;19979;-73
2023/06/23 04:29:45;;;;;;;;;;;;;;;14.37;100.00;102077.28;5013398;28;20447;-73
2023/06/23 04:32:11;;;;;;;;;;;;;;;14.42;100.00;102074.25;5012163;28;19921;-73
2023/06/23 04:34:36;;;;;;;;;;;;;;;14.48;100.00;102079.19;5011307;28;19925;-73
2023/06/23 04:37:06;;;;;;;;;;;;;;;14.50;100.00;102086.22;5011799;28;20417;-73
2023/06/23 04:39:51;;;;;;;;;;;;;;;14.60;100.00;102090.91;5011540;28;19921;-73
2023/06/23 04:42:17;;;;;;;;;;;;;;;14.62;100.00;102094.34;5011738;28;19998;-72
2023/06/23 04:44:48;;;;;;;;;;;;;;;14.67;100.00;102095.75;5010728;28;20372;-72
2023/06/23 04:47:13;;;;;;;;;;;;;;;14.74;100.00;102093.47;5008595;28;19921;-74
2023/06/23 04:49:39;;;;;;;;;;;;;;;14.81;100.00;102096.56;5011686;28;19978;-72
2023/06/23 04:52:05;;;;;;;;;;;;;;;14.88;100.00;102099.66;5009142;28;20008;-72
2023/06/23 04:54:40;;;;;;;;;;;;;;;14.96;100.00;102105.34;5015019;28;19955;-73
2023/06/23 04:57:13;;;;;;;;;;;;;;;15.04;100.00;102108.34;5012412;28;19925;-72
2023/06/23 04:59:39;;;;;;;;;;;;;;;15.10;100.00;102113.25;5008388;28;20012;-73
2023/06/23 05:02:04;;;;;;;;;;;;;;;15.17;100.00;102110.09;5001335;28;19927;-72
2023/06/23 05:04:30;;;;;;;;;;;;;;;15.20;100.00;102118.84;4997759;28;19931;-72
2023/06/23 05:06:55;;;;;;;;;;;;;;;15.28;100.00;102119.09;5012705;28;19971;-72
2023/06/23 05:09:20;;;;;;;;;;;;;;;15.33;100.00;102121.47;4989061;28;19922;-73
2023/06/23 05:11:45;;;;;;;;;;;;;;;15.38;100.00;102113.81;5003097;28;20406;-73
2023/06/23 05:14:11;;;;;;;;;;;;;;;15.45;100.00;102123.19;5009216;28;19920;-72
2023/06/23 05:16:36;;;;;;;;;;;;;;;15.54;100.00;102121.59;5002332;28;19921;-72
2023/06/23 05:19:01;;;;;;;;;;;;;;;15.59;100.00;102124.81;5011038;28;19945;-72
2023/06/23 05:21:27;;;;;;;;;;;;;;;15.63;100.00;102121.88;4994397;28;19917;-72
2023/06/23 05:23:53;;;;;;;;;;;;;;;15.70;100.00;102123.13;5007884;28;19925;-74
2023/06/23 05:26:18;;;;;;;;;;;;;;;15.80;100.00;102124.09;4993538;28;19926;-73
2023/06/23 05:28:43;;;;;;;;;;;;;;;15.80;100.00;102107.84;5006727;28;19921;-73
2023/06/23 05:31:09;;;;;;;;;;;;;;;16.02;100.00;102133.25;5008896;28;19924;-73
2023/06/23 05:33:36;;;;;;;;;;;;;;;16.13;100.00;102145.94;5025504;28;19971;-73
2023/06/23 05:36:01;;;;;;;;;;;;;;;16.24;100.00;102145.91;5001288;28;19918;-73
2023/06/23 05:38:26;;;;;;;;;;;;;;;16.32;100.00;102140.72;5013909;28;19987;-72
2023/06/23 05:40:52;;;;;;;;;;;;;;;16.37;100.00;102147.63;5015380;28;20336;-72
2023/06/23 05:43:17;;;;;;;;;;;;;;;16.46;100.00;102147.72;5027010;28;19947;-72
2023/06/23 05:45:42;;;;;;;;;;;;;;;16.52;100.00;102143.63;5013695;28;19921;-72
2023/06/23 05:48:10;;;;;;;;;;;;;;;16.53;100.00;102153.50;5015103;28;19917;-73
2023/06/23 05:50:36;;;;;;;;;;;;;;;16.55;100.00;102161.50;5013609;28;20505;-72
2023/06/23 05:53:03;;;;;;;;;;;;;;;16.59;100.00;102160.25;5012576;28;19986;-73
2023/06/23 05:55:28;;;;;;;;;;;;;;;16.64;100.00;102158.03;5015060;28;20401;-72
2023/06/23 05:57:59;;;;;;;;;;;;;;;16.76;100.00;102164.28;5010161;28;19921;-72
2023/06/23 06:00:25;;;;;;;;;;;;;;;16.88;100.00;102167.81;5011914;28;20032;-72
2023/06/23 06:02:50;;;;;;;;;;;;;;;16.93;100.00;102174.59;5010043;28;19925;-73
2023/06/23 06:05:17;;;;;;;;;;;;;;;17.06;100.00;102173.56;5011061;28;19963;-72
2023/06/23 06:07:42;;;;;;;;;;;;;;;17.18;100.00;102174.38;5016409;28;19925;-72
2023/06/23 06:10:08;;;;;;;;;;;;;;;17.34;100.00;102184.78;5011528;28;19928;-72
2023/06/23 06:12:34;;;;;;;;;;;;;;;17.46;100.00;102188.31;5014153;28;19917;-72
2023/06/23 06:15:00;;;;;;;;;;;;;;;17.55;100.00;102192.97;4991879;28;19925;-72
2023/06/23 06:17:25;;;;;;;;;;;;;;;17.63;100.00;102193.13;5012131;28;19971;-72
2023/06/23 06:19:50;;;;;;;;;;;;;;;17.70;100.00;102193.47;5012065;28;19940;-72
2023/06/23 06:22:16;;;;;;;;;;;;;;;17.87;100.00;102196.56;5007689;28;20284;-72
2023/06/23 06:24:41;;;;;;;;;;;;;;;17.98;100.00;102205.53;4996985;28;20306;-72
2023/06/23 06:27:06;;;;;;;;;;;;;;;18.03;100.00;102202.38;5012680;28;19928;-72
2023/06/23 06:29:31;;;;;;;;;;;;;;;18.05;100.00;102203.13;5013760;28;19929;-73
2023/06/23 06:31:57;;;;;;;;;;;;;;;18.11;100.00;102208.00;5013098;28;20328;-71
2023/06/23 06:34:23;;;;;;;;;;;;;;;18.23;100.00;102200.63;5006884;28;19923;-73
2023/06/23 06:36:48;;;;;;;;;;;;;;;18.09;100.00;102204.56;5010530;28;19964;-73
2023/06/23 06:39:14;;;;;;;;;;;;;;;18.13;100.00;102207.91;5006293;28;20008;-72
2023/06/23 06:41:39;;;;;;;;;;;;;;;18.01;100.00;102179.06;5013656;28;19924;-72
2023/06/23 06:44:04;;;;;;;;;;;;;;;18.50;100.00;102222.78;4993925;28;20435;-72
2023/06/23 06:46:30;;;;;;;;;;;;;;;18.80;100.00;102218.28;5013214;28;20758;-71
2023/06/23 06:48:55;;;;;;;;;;;;;;;19.15;100.00;102223.22;5012489;28;19929;-73
2023/06/23 06:51:21;;;;;;;;;;;;;;;19.41;100.00;102225.34;5012471;28;20337;-71
2023/06/23 06:53:46;;;;;;;;;;;;;;;19.46;100.00;102223.06;5005044;28;20363;-72
2023/06/23 06:56:11;;;;;;;;;;;;;;;19.49;100.00;102217.31;5011749;28;19917;-72
2023/06/23 06:58:37;;;;;;;;;;;;;;;19.30;100.00;102220.91;5013013;28;20179;-72
2023/06/23 07:01:03;;;;;;;;;;;;;;;19.08;100.00;102213.00;5009074;28;19976;-71
2023/06/23 07:03:28;;;;;;;;;;;;;;;18.99;100.00;102218.31;5006003;28;19938;-72
2023/06/23 07:05:53;;;;;;;;;;;;;;;18.80;100.00;102226.44;5006423;28;19925;-73
2023/06/23 07:08:18;;;;;;;;;;;;;;;18.93;100.00;102224.28;5018297;28;20395;-73
2023/06/23 07:10:44;;;;;;;;;;;;;;;18.93;100.00;102232.47;5011860;28;20324;-73
2023/06/23 07:13:09;;;;;;;;;;;;;;;18.89;100.00;102228.28;5011132;28;20322;-73
2023/06/23 07:15:34;;;;;;;;;;;;;;;18.75;100.00;102232.28;5012085;28;19928;-73
2023/06/23 07:17:59;;;;;;;;;;;;;;;18.68;100.00;102247.44;5012873;28;19925;-72
2023/06/23 07:20:25;;;;;;;;;;;;;;;18.60;100.00;102248.13;5010966;28;20534;-72
2023/06/23 07:22:50;;;;;;;;;;;;;;;18.66;100.00;102249.44;5003747;28;19951;-72
2023/06/23 07:25:15;;;;;;;;;;;;;;;18.59;100.00;102249.13;5009743;28;19963;-73
2023/06/23 07:27:40;;;;;;;;;;;;;;;18.57;100.00;102254.72;5011866;28;19921;-72
2023/06/23 07:30:06;;;;;;;;;;;;;;;18.61;100.00;102262.59;5009787;28;19999;-73
2023/06/23 07:32:31;;;;;;;;;;;;;;;18.71;100.00;102264.34;5013760;28;19920;-73
2023/06/23 07:34:56;;;;;;;;;;;;;;;18.89;100.00;102263.66;5013963;28;20619;-73
2023/06/23 07:37:22;;;;;;;;;;;;;;;19.12;100.00;102250.72;5018365;28;19921;-72
2023/06/23 07:39:47;;;;;;;;;;;;;;;19.33;100.00;102256.00;5013762;28;20123;-74
2023/06/23 07:42:12;;;;;;;;;;;;;;;19.49;100.00;102241.81;5006786;28;19960;-72
2023/06/23 07:44:37;;;;;;;;;;;;;;;19.72;100.00;102240.66;5016504;28;20051;-72
2023/06/23 07:47:03;;;;;;;;;;;;;;;19.97;100.00;102247.38;5016377;28;19927;-72
2023/06/23 07:49:29;;;;;;;;;;;;;;;20.16;100.00;102245.59;5014531;28;19921;-73
2023/06/23 07:51:54;;;;;;;;;;;;;;;20.00;100.00;102246.22;5003263;28;20379;-74
2023/06/23 07:54:19;;;;;;;;;;;;;;;19.87;100.00;102246.50;5013857;28;19935;-73
2023/06/23 07:56:44;;;;;;;;;;;;;;;19.83;100.00;102242.34;5008505;28;19924;-73
2023/06/23 07:59:10;;;;;;;;;;;;;;;19.82;100.00;102246.06;5004561;28;19925;-73
2023/06/23 08:01:35;;;;;;;;;;;;;;;19.97;100.00;102241.06;5009056;28;19932;-73
2023/06/23 08:04:00;;;;;;;;;;;;;;;20.05;100.00;102252.09;5012203;28;19932;-73
2023/06/23 08:06:25;;;;;;;;;;;;;;;20.24;100.00;102251.19;5009660;28;19988;-73
2023/06/23 08:08:51;;;;;;;;;;;;;;;20.12;100.00;102250.50;5014768;28;20028;-73
2023/06/23 08:11:16;;;;;;;;;;;;;;;20.20;100.00;102244.28;5024909;28;19925;-73
2023/06/23 08:13:41;;;;;;;;;;;;;;;20.26;100.00;102245.56;5005292;28;20283;-73
2023/06/23 08:16:06;;;;;;;;;;;;;;;20.34;100.00;102251.13;5016431;28;19968;-72
2023/06/23 08:18:32;;;;;;;;;;;;;;;20.34;100.00;102249.25;5009574;28;19921;-73
2023/06/23 08:20:57;;;;;;;;;;;;;;;20.37;100.00;102243.50;5012878;28;19975;-73
2023/06/23 08:23:22;;;;;;;;;;;;;;;20.50;100.00;102251.34;5008588;28;20037;-73
2023/06/23 08:25:47;;;;;;;;;;;;;;;20.60;100.00;102251.28;5012222;28;19921;-73
2023/06/23 08:28:12;;;;;;;;;;;;;;;20.61;100.00;102243.97;5010105;28;20371;-73
2023/06/23 08:30:38;;;;;;;;;;;;;;;20.74;100.00;102249.91;5014111;28;20348;-73
2023/06/23 08:33:03;;;;;;;;;;;;;;;20.81;100.00;102253.78;5006696;28;20374;-74
2023/06/23 08:35:28;;;;;;;;;;;;;;;21.05;100.00;102252.34;5015705;28;20020;-74
2023/06/23 08:37:53;;;;;;;;;;;;;;;21.09;100.00;102256.47;5005463;28;20003;-75
2023/06/23 08:40:19;;;;;;;;;;;;;;;21.24;100.00;102259.53;5013453;28;19931;-73
2023/06/23 08:42:44;;;;;;;;;;;;;;;21.28;100.00;102255.47;5013642;28;20343;-74
2023/06/23 08:45:09;;;;;;;;;;;;;;;21.48;100.00;102259.88;5015165;28;19921;-73
2023/06/23 08:47:36;;;;;;;;;;;;;;;21.50;100.00;102260.59;5015048;28;19928;-74
2023/06/23 08:50:01;;;;;;;;;;;;;;;21.58;100.00;102256.06;5009711;28;19922;-73
2023/06/23 08:52:26;;;;;;;;;;;;;;;21.67;100.00;102262.50;5014975;28;20407;-72
2023/06/23 08:54:52;;;;;;;;;;;;;;;21.58;100.00;102260.69;5016435;28;19998;-76
2023/06/23 08:57:17;;;;;;;;;;;;;;;21.73;100.00;102269.19;5013778;28;19921;-73
2023/06/23 08:59:42;;;;;;;;;;;;;;;21.92;100.00;102272.75;5008383;28;20271;-72
2023/06/23 09:02:07;;;;;;;;;;;;;;;21.80;100.00;102269.41;5008550;28;19921;-76
2023/06/23 09:04:33;;;;;;;;;;;;;;;21.87;100.00;102276.81;5008334;28;19921;-74
2023/06/23 09:06:58;;;;;;;;;;;;;;;22.03;100.00;102275.22;5027965;28;19928;-74
2023/06/23 09:09:24;;;;;;;;;;;;;;;22.18;100.00;102279.06;5015516;28;19967;-74
2023/06/23 09:11:49;;;;;;;;;;;;;;;22.34;100.00;102293.88;5012833;28;19956;-73
2023/06/23 09:14:14;;;;;;;;;;;;;;;22.56;100.00;102299.84;5010241;28;20354;-74
2023/06/23 09:16:40;;;;;;;;;;;;;;;22.66;100.00;102302.44;5016953;28;19925;-74
2023/06/23 09:19:06;;;;;;;;;;;;;;;22.74;100.00;102303.31;5012379;28;19956;-74
2023/06/23 09:21:32;;;;;;;;;;;;;;;22.89;100.00;102308.19;5010439;28;21411;-74
2023/06/23 09:23:58;;;;;;;;;;;;;;;23.02;100.00;102302.22;5011665;28;19929;-75
2023/06/23 09:26:24;;;;;;;;;;;;;;;22.97;100.00;102310.09;5018640;28;20007;-74
2023/06/23 09:28:49;;;;;;;;;;;;;;;23.03;100.00;102309.44;5012748;28;19927;-74
2023/06/23 09:31:16;;;;;;;;;;;;;;;23.23;100.00;102309.16;5007435;28;19927;-74
2023/06/23 09:33:45;;;;;;;;;;;;;;;23.44;100.00;102303.19;5002260;28;19921;-73
2023/06/23 09:36:10;;;;;;;;;;;;;;;23.57;100.00;102297.22;5013847;28;19967;-72
2023/06/23 09:38:36;;;;;;;;;;;;;;;23.62;100.00;102314.84;5011204;28;20012;-73
2023/06/23 09:41:09;;;;;;;;;;;;;;;23.57;100.00;102308.19;5007221;28;19972;-74
2023/06/23 09:43:38;;;;;;;;;;;;;;;23.76;100.00;102304.22;5012681;28;20138;-69
2023/06/23 09:46:07;;;;;;;;;;;;;;;23.98;100.00;102305.44;5016838;28;19927;-79
2023/06/23 09:48:32;;;;;;;;;;;;;;;24.09;100.00;102315.19;5013597;28;19921;-71
2023/06/23 09:51:04;;;;;;;;;;;;;;;24.26;100.00;102319.63;5012500;28;19917;-72
2023/06/23 09:53:36;;;;;;;;;;;;;;;24.38;100.00;102322.00;5016819;28;19952;-72
2023/06/23 09:56:03;;;;;;;;;;;;;;;24.30;96.07;102313.78;5004842;28;19925;-72
2023/06/23 09:58:32;;;;;;;;;;;;;;;24.39;100.00;102319.06;5003879;28;19945;-71
2023/06/23 10:01:04;;;;;;;;;;;;;;;24.51;94.78;102322.28;5007026;28;20027;-71
2023/06/23 10:03:30;;;;;;;;;;;;;;;24.69;88.54;102318.47;5005647;28;19971;-77
2023/06/23 10:05:56;;;;;;;;;;;;;;;24.83;92.84;102314.16;5014086;28;20319;-71
2023/06/23 10:08:21;;;;;;;;;;;;;;;25.15;100.00;102315.00;5016183;28;19917;-71
2023/06/23 10:10:46;;;;;;;;;;;;;;;25.41;87.88;102308.31;5010596;28;20043;-71
2023/06/23 10:13:11;;;;;;;;;;;;;;;25.36;79.13;102308.84;5002540;28;19936;-74
2023/06/23 10:15:37;;;;;;;;;;;;;;;25.45;82.09;102306.91;5005770;28;19921;-75
2023/06/23 10:18:02;;;;;;;;;;;;;;;25.19;76.39;102301.75;5006056;28;19964;-73
2023/06/23 10:20:28;;;;;;;;;;;;;;;25.44;79.86;102307.94;5011388;28;19974;-73
2023/06/23 10:22:55;;;;;;;;;;;;;;;25.78;78.79;102298.41;5014883;28;20016;-72
2023/06/23 10:25:21;;;;;;;;;;;;;;;25.93;76.69;102300.34;5019186;28;19921;-72
2023/06/23 10:27:46;;;;;;;;;;;;;;;26.13;80.42;102298.78;5010510;28;20356;-71
2023/06/23 10:30:12;;;;;;;;;;;;;;;26.15;82.14;102299.47;5007323;28;20160;-71
2023/06/23 10:32:37;;;;;;;;;;;;;;;26.37;85.24;102302.31;5026630;28;20020;-71
2023/06/23 10:35:08;;;;;;;;;;;;;;;26.63;76.75;102310.06;5013573;28;19960;-71
2023/06/23 10:37:33;;;;;;;;;;;;;;;26.72;81.23;102308.09;5010654;28;19960;-71
2023/06/23 10:40:03;;;;;;;;;;;;;;;27.18;82.93;102293.16;5009180;28;20044;-71
2023/06/23 10:42:31;;;;;;;;;;;;;;;27.18;71.39;102304.19;5005815;28;21420;-71
2023/06/23 10:44:56;;;;;;;;;;;;;;;27.27;79.71;102293.91;5015301;28;19925;-73
2023/06/23 10:47:22;;;;;;;;;;;;;;;27.37;73.66;102302.69;5012768;28;19921;-73
2023/06/23 10:49:47;;;;;;;;;;;;;;;27.72;73.77;102301.13;5015614;28;19928;-73
2023/06/23 10:52:13;;;;;;;;;;;;;;;27.90;67.22;102300.66;5013434;28;19921;-72
2023/06/23 10:54:38;;;;;;;;;;;;;;;28.02;63.01;102306.47;5032722;28;19967;-71
2023/06/23 10:57:12;;;;;;;;;;;;;;;28.46;62.81;102315.50;5012104;28;19975;-71
2023/06/23 10:59:44;;;;;;;;;;;;;;;29.06;63.71;102309.38;5011075;28;20268;-71
2023/06/23 11:02:19;;;;;;;;;;;;;;;29.38;60.47;102307.81;5013411;28;20000;-74
2023/06/23 11:04:51;;;;;;;;;;;;;;;29.77;55.37;102308.03;5016839;28;20307;-72
2023/06/23 11:07:17;;;;;;;;;;;;;;;29.63;56.56;102302.50;5008948;28;19939;-70
2023/06/23 11:09:45;;;;;;;;;;;;;;;29.74;53.29;102303.75;5017674;28;19921;-71
2023/06/23 11:12:32;;;;;;;;;;;;;;;29.73;51.74;102310.34;5016563;28;19932;-70
2023/06/23 11:15:16;;;;;;;;;;;;;;;29.96;49.11;102308.22;5013754;28;20632;-70
2023/06/23 11:17:48;;;;;;;;;;;;;;;29.21;50.59;102323.91;5010856;28;19920;-74
2023/06/23 11:20:20;;;;;;;;;;;;;;;29.26;52.33;102321.38;5009767;28;20023;-73
2023/06/23 11:22:52;;;;;;;;;;;;;;;29.31;49.36;102324.34;5012539;28;20383;-74
2023/06/23 11:25:34;;;;;;;;;;;;;;;29.77;47.69;102322.72;5011999;28;20363;-71
2023/06/23 11:28:38;;;;;;;;;;;;;;;30.61;50.49;102324.97;5013736;28;19926;-70
2023/06/23 11:31:07;;;;;;;;;;;;;;;31.12;47.49;102336.25;5016229;28;20374;-70
2023/06/23 11:33:39;;;;;;;;;;;;;;;31.30;44.24;102332.78;5012593;28;20358;-71
2023/06/23 11:36:08;;;;;;;;;;;;;;;31.02;45.10;102322.88;5002315;28;19963;-71
2023/06/23 11:38:33;;;;;;;;;;;;;;;31.24;40.87;102323.44;5009284;28;19944;-71
2023/06/23 11:40:59;;;;;;;;;;;;;;;31.84;45.30;102327.69;5014767;28;20395;-70
2023/06/23 11:43:24;;;;;;;;;;;;;;;31.55;40.14;102338.34;5014033;28;19929;-72
2023/06/23 11:45:56;;;;;;;;;;;;;;;32.10;42.84;102327.69;5018636;28;20437;-71
2023/06/23 11:48:22;;;;;;;;;;;;;;;32.31;43.81;102329.22;5014221;28;20321;-71
2023/06/23 11:50:47;;;;;;;;;;;;;;;31.19;39.86;102330.69;5009620;28;20487;-72
2023/06/23 11:53:13;;;;;;;;;;;;;;;32.11;44.98;102326.59;5032980;28;19943;-71
2023/06/23 11:55:38;;;;;;;;;;;;;;;32.76;42.75;102320.53;5010873;28;22099;-71
2023/06/23 11:58:04;;;;;;;;;;;;;;;33.46;40.78;102318.31;5009684;28;19920;-72
2023/06/23 12:00:30;;;;;;;;;;;;;;;32.22;39.92;102319.44;5012366;28;19927;-73
2023/06/23 12:02:55;;;;;;;;;;;;;;;31.03;41.71;102323.72;5013474;28;19925;-70
2023/06/23 12:05:20;;;;;;;;;;;;;;;30.27;41.03;102315.88;5013020;28;20249;-74
2023/06/23 12:07:47;;;;;;;;;;;;;;;31.06;43.22;102326.03;4994551;28;20028;-71
2023/06/23 12:10:12;;;;;;;;;;;;;;;31.99;41.62;102319.00;5016531;28;20331;-71
2023/06/23 12:12:37;;;;;;;;;;;;;;;33.20;41.66;102314.84;5017105;28;20017;-70
2023/06/23 12:15:03;;;;;;;;;;;;;;;33.94;40.74;102318.38;5010133;28;19932;-71
2023/06/23 12:17:28;;;;;;;;;;;;;;;34.42;39.46;102321.13;5016457;28;19979;-71
2023/06/23 12:19:54;;;;;;;;;;;;;;;34.43;38.99;102317.25;5014896;28;19921;-70
2023/06/23 12:22:20;;;;;;;;;;;;;;;33.88;37.38;102320.19;5015562;28;20107;-77
2023/06/23 12:24:45;;;;;;;;;;;;;;;33.28;35.61;102316.41;5013324;28;19921;-73